sensor_id;sensor_type;location;lat;lon;timestamp;P1;durP1;ratioP1;P2;durP2;ratioP2
21878;SDS011;27908;42.708;23.278;2023-04-24T00:00:32;15.33;;;6.83;;
21878;SDS011;27908;42.708;23.278;2023-04-24T00:02:58;13.32;;;6.40;;
21878;SDS011;27908;42.708;23.278;2023-04-24T00:05:23;13.67;;;6.67;;
21878;SDS011;27908;42.708;23.278;2023-04-24T00:07:49;13.80;;;6.85;;
21878;SDS011;27908;42.708;23.278;2023-04-24T00:10:17;12.10;;;6.50;;
21878;SDS011;27908;42.708;23.278;2023-04-24T00:12:43;15.15;;;7.00;;
21878;SDS011;27908;42.708;23.278;2023-04-24T00:15:09;16.27;;;7.82;;
21878;SDS011;27908;42.708;23.278;2023-04-24T00:17:35;12.45;;;6.93;;
21878;SDS011;27908;42.708;23.278;2023-04-24T00:20:01;14.17;;;7.70;;
21878;SDS011;27908;42.708;23.278;2023-04-24T00:22:30;13.43;;;7.07;;
21878;SDS011;27908;42.708;23.278;2023-04-24T00:24:56;13.27;;;6.47;;
21878;SDS011;27908;42.708;23.278;2023-04-24T00:27:22;14.25;;;6.45;;
21878;SDS011;27908;42.708;23.278;2023-04-24T00:29:48;13.10;;;6.55;;
21878;SDS011;27908;42.708;23.278;2023-04-24T00:32:13;12.20;;;5.67;;
21878;SDS011;27908;42.708;23.278;2023-04-24T00:34:39;13.32;;;6.68;;
21878;SDS011;27908;42.708;23.278;2023-04-24T00:37:05;15.13;;;6.80;;
21878;SDS011;27908;42.708;23.278;2023-04-24T00:39:31;12.80;;;6.68;;
21878;SDS011;27908;42.708;23.278;2023-04-24T00:41:56;13.70;;;7.37;;
21878;SDS011;27908;42.708;23.278;2023-04-24T00:44:22;13.63;;;7.88;;
21878;SDS011;27908;42.708;23.278;2023-04-24T00:46:47;12.80;;;6.70;;
21878;SDS011;27908;42.708;23.278;2023-04-24T00:49:17;12.77;;;6.50;;
21878;SDS011;27908;42.708;23.278;2023-04-24T00:51:43;15.73;;;7.40;;
21878;SDS011;27908;42.708;23.278;2023-04-24T00:54:11;13.60;;;7.00;;
21878;SDS011;27908;42.708;23.278;2023-04-24T00:56:37;14.27;;;7.00;;
21878;SDS011;27908;42.708;23.278;2023-04-24T00:59:02;13.55;;;7.13;;
21878;SDS011;27908;42.708;23.278;2023-04-24T01:01:29;14.73;;;7.30;;
21878;SDS011;27908;42.708;23.278;2023-04-24T01:03:55;12.73;;;7.45;;
21878;SDS011;27908;42.708;23.278;2023-04-24T01:06:22;13.55;;;7.63;;
21878;SDS011;27908;42.708;23.278;2023-04-24T01:08:48;15.23;;;7.15;;
21878;SDS011;27908;42.708;23.278;2023-04-24T01:11:14;14.48;;;7.80;;
21878;SDS011;27908;42.708;23.278;2023-04-24T01:13:40;13.43;;;7.40;;
21878;SDS011;27908;42.708;23.278;2023-04-24T01:16:06;16.70;;;8.43;;
21878;SDS011;27908;42.708;23.278;2023-04-24T01:18:31;17.38;;;8.05;;
21878;SDS011;27908;42.708;23.278;2023-04-24T01:20:57;12.77;;;6.90;;
21878;SDS011;27908;42.708;23.278;2023-04-24T01:23:24;14.38;;;7.88;;
21878;SDS011;27908;42.708;23.278;2023-04-24T01:25:50;16.85;;;7.90;;
21878;SDS011;27908;42.708;23.278;2023-04-24T01:28:16;17.97;;;7.10;;
21878;SDS011;27908;42.708;23.278;2023-04-24T01:30:42;12.23;;;6.97;;
21878;SDS011;27908;42.708;23.278;2023-04-24T01:33:08;15.65;;;5.90;;
21878;SDS011;27908;42.708;23.278;2023-04-24T01:35:34;14.07;;;6.72;;
21878;SDS011;27908;42.708;23.278;2023-04-24T01:38:01;13.47;;;7.07;;
21878;SDS011;27908;42.708;23.278;2023-04-24T01:40:26;13.18;;;7.43;;
21878;SDS011;27908;42.708;23.278;2023-04-24T01:42:52;13.60;;;6.20;;
21878;SDS011;27908;42.708;23.278;2023-04-24T01:45:18;16.30;;;7.18;;
21878;SDS011;27908;42.708;23.278;2023-04-24T01:47:43;12.73;;;6.60;;
21878;SDS011;27908;42.708;23.278;2023-04-24T01:50:09;14.95;;;6.20;;
21878;SDS011;27908;42.708;23.278;2023-04-24T01:52:35;14.43;;;6.35;;
21878;SDS011;27908;42.708;23.278;2023-04-24T01:55:01;15.73;;;6.50;;
21878;SDS011;27908;42.708;23.278;2023-04-24T01:57:28;16.05;;;6.38;;
21878;SDS011;27908;42.708;23.278;2023-04-24T01:59:55;12.80;;;6.65;;
21878;SDS011;27908;42.708;23.278;2023-04-24T02:02:21;12.53;;;6.90;;
21878;SDS011;27908;42.708;23.278;2023-04-24T02:04:48;14.25;;;6.85;;
21878;SDS011;27908;42.708;23.278;2023-04-24T02:07:14;15.13;;;6.47;;
21878;SDS011;27908;42.708;23.278;2023-04-24T02:09:39;14.60;;;6.95;;
21878;SDS011;27908;42.708;23.278;2023-04-24T02:12:05;12.20;;;6.93;;
21878;SDS011;27908;42.708;23.278;2023-04-24T02:14:30;13.27;;;7.20;;
21878;SDS011;27908;42.708;23.278;2023-04-24T02:16:56;12.87;;;6.93;;
21878;SDS011;27908;42.708;23.278;2023-04-24T02:19:21;13.07;;;7.27;;
21878;SDS011;27908;42.708;23.278;2023-04-24T02:21:46;13.10;;;7.00;;
21878;SDS011;27908;42.708;23.278;2023-04-24T02:24:12;13.93;;;6.80;;
21878;SDS011;27908;42.708;23.278;2023-04-24T02:26:37;14.53;;;6.97;;
21878;SDS011;27908;42.708;23.278;2023-04-24T02:29:02;12.90;;;6.30;;
21878;SDS011;27908;42.708;23.278;2023-04-24T02:31:28;14.90;;;7.88;;
21878;SDS011;27908;42.708;23.278;2023-04-24T02:33:53;14.77;;;7.20;;
21878;SDS011;27908;42.708;23.278;2023-04-24T02:36:19;16.27;;;7.33;;
21878;SDS011;27908;42.708;23.278;2023-04-24T02:38:44;14.77;;;7.40;;
21878;SDS011;27908;42.708;23.278;2023-04-24T02:41:10;17.42;;;7.63;;
21878;SDS011;27908;42.708;23.278;2023-04-24T02:43:35;16.20;;;7.10;;
21878;SDS011;27908;42.708;23.278;2023-04-24T02:46:01;14.50;;;7.37;;
21878;SDS011;27908;42.708;23.278;2023-04-24T02:48:26;14.97;;;7.30;;
21878;SDS011;27908;42.708;23.278;2023-04-24T02:50:52;15.77;;;7.05;;
21878;SDS011;27908;42.708;23.278;2023-04-24T02:53:18;17.37;;;7.40;;
21878;SDS011;27908;42.708;23.278;2023-04-24T02:55:43;15.65;;;7.95;;
21878;SDS011;27908;42.708;23.278;2023-04-24T02:58:08;14.40;;;7.67;;
21878;SDS011;27908;42.708;23.278;2023-04-24T03:00:35;16.70;;;7.72;;
21878;SDS011;27908;42.708;23.278;2023-04-24T03:03:01;15.40;;;8.60;;
21878;SDS011;27908;42.708;23.278;2023-04-24T03:05:26;18.27;;;8.37;;
21878;SDS011;27908;42.708;23.278;2023-04-24T03:07:52;14.50;;;6.95;;
21878;SDS011;27908;42.708;23.278;2023-04-24T03:10:18;16.13;;;8.07;;
21878;SDS011;27908;42.708;23.278;2023-04-24T03:12:43;15.45;;;8.75;;
21878;SDS011;27908;42.708;23.278;2023-04-24T03:15:09;15.77;;;8.23;;
21878;SDS011;27908;42.708;23.278;2023-04-24T03:17:34;15.97;;;8.17;;
21878;SDS011;27908;42.708;23.278;2023-04-24T03:20:00;16.55;;;8.07;;
21878;SDS011;27908;42.708;23.278;2023-04-24T03:22:26;20.63;;;8.53;;
21878;SDS011;27908;42.708;23.278;2023-04-24T03:24:51;17.33;;;8.73;;
21878;SDS011;27908;42.708;23.278;2023-04-24T03:27:17;17.90;;;8.23;;
21878;SDS011;27908;42.708;23.278;2023-04-24T03:29:42;16.87;;;8.23;;
21878;SDS011;27908;42.708;23.278;2023-04-24T03:32:08;17.70;;;8.97;;
21878;SDS011;27908;42.708;23.278;2023-04-24T03:34:33;17.10;;;8.10;;
21878;SDS011;27908;42.708;23.278;2023-04-24T03:36:59;18.10;;;8.43;;
21878;SDS011;27908;42.708;23.278;2023-04-24T03:39:25;20.40;;;9.73;;
21878;SDS011;27908;42.708;23.278;2023-04-24T03:41:50;19.50;;;10.07;;
21878;SDS011;27908;42.708;23.278;2023-04-24T03:44:16;17.57;;;9.40;;
21878;SDS011;27908;42.708;23.278;2023-04-24T03:46:41;18.07;;;9.10;;
21878;SDS011;27908;42.708;23.278;2023-04-24T03:49:06;16.47;;;9.57;;
21878;SDS011;27908;42.708;23.278;2023-04-24T03:51:32;15.20;;;9.27;;
21878;SDS011;27908;42.708;23.278;2023-04-24T03:53:57;18.83;;;9.43;;
21878;SDS011;27908;42.708;23.278;2023-04-24T03:56:23;19.83;;;8.70;;
21878;SDS011;27908;42.708;23.278;2023-04-24T03:58:48;17.00;;;9.00;;
21878;SDS011;27908;42.708;23.278;2023-04-24T04:01:13;14.00;;;8.10;;
21878;SDS011;27908;42.708;23.278;2023-04-24T04:03:41;16.20;;;8.85;;
21878;SDS011;27908;42.708;23.278;2023-04-24T04:06:06;15.77;;;8.10;;
21878;SDS011;27908;42.708;23.278;2023-04-24T04:08:32;18.80;;;8.20;;
21878;SDS011;27908;42.708;23.278;2023-04-24T04:10:57;15.50;;;8.20;;
21878;SDS011;27908;42.708;23.278;2023-04-24T04:13:22;15.37;;;8.93;;
21878;SDS011;27908;42.708;23.278;2023-04-24T04:15:48;18.60;;;8.70;;
21878;SDS011;27908;42.708;23.278;2023-04-24T04:18:13;17.67;;;9.43;;
21878;SDS011;27908;42.708;23.278;2023-04-24T04:20:39;17.83;;;8.85;;
21878;SDS011;27908;42.708;23.278;2023-04-24T04:23:05;16.20;;;8.20;;
21878;SDS011;27908;42.708;23.278;2023-04-24T04:25:30;14.23;;;8.45;;
21878;SDS011;27908;42.708;23.278;2023-04-24T04:27:56;19.53;;;8.70;;
21878;SDS011;27908;42.708;23.278;2023-04-24T04:30:23;15.68;;;8.20;;
21878;SDS011;27908;42.708;23.278;2023-04-24T04:32:48;17.43;;;8.90;;
21878;SDS011;27908;42.708;23.278;2023-04-24T04:35:13;20.50;;;9.90;;
21878;SDS011;27908;42.708;23.278;2023-04-24T04:37:39;19.30;;;9.23;;
21878;SDS011;27908;42.708;23.278;2023-04-24T04:40:05;16.85;;;9.10;;
21878;SDS011;27908;42.708;23.278;2023-04-24T04:42:31;17.45;;;8.77;;
21878;SDS011;27908;42.708;23.278;2023-04-24T04:44:59;16.43;;;8.97;;
21878;SDS011;27908;42.708;23.278;2023-04-24T04:47:24;20.48;;;8.38;;
21878;SDS011;27908;42.708;23.278;2023-04-24T04:49:51;19.65;;;8.60;;
21878;SDS011;27908;42.708;23.278;2023-04-24T04:52:17;19.70;;;9.57;;
21878;SDS011;27908;42.708;23.278;2023-04-24T04:54:43;16.92;;;8.40;;
21878;SDS011;27908;42.708;23.278;2023-04-24T04:57:08;19.73;;;9.17;;
21878;SDS011;27908;42.708;23.278;2023-04-24T04:59:34;25.45;;;9.82;;
21878;SDS011;27908;42.708;23.278;2023-04-24T05:02:00;19.53;;;10.77;;
21878;SDS011;27908;42.708;23.278;2023-04-24T05:04:25;21.67;;;9.47;;
21878;SDS011;27908;42.708;23.278;2023-04-24T05:06:51;25.77;;;9.50;;
21878;SDS011;27908;42.708;23.278;2023-04-24T05:09:17;23.58;;;10.40;;
21878;SDS011;27908;42.708;23.278;2023-04-24T05:11:42;24.20;;;8.90;;
21878;SDS011;27908;42.708;23.278;2023-04-24T05:14:08;20.93;;;9.53;;
21878;SDS011;27908;42.708;23.278;2023-04-24T05:16:33;20.60;;;9.00;;
21878;SDS011;27908;42.708;23.278;2023-04-24T05:18:59;20.27;;;9.18;;
21878;SDS011;27908;42.708;23.278;2023-04-24T05:21:25;17.57;;;7.40;;
21878;SDS011;27908;42.708;23.278;2023-04-24T05:23:50;17.37;;;7.90;;
21878;SDS011;27908;42.708;23.278;2023-04-24T05:26:16;18.67;;;8.53;;
21878;SDS011;27908;42.708;23.278;2023-04-24T05:28:42;13.13;;;7.43;;
21878;SDS011;27908;42.708;23.278;2023-04-24T05:31:08;15.40;;;7.43;;
21878;SDS011;27908;42.708;23.278;2023-04-24T05:33:33;14.13;;;7.25;;
21878;SDS011;27908;42.708;23.278;2023-04-24T05:35:59;15.90;;;7.67;;
21878;SDS011;27908;42.708;23.278;2023-04-24T05:38:24;15.23;;;7.27;;
21878;SDS011;27908;42.708;23.278;2023-04-24T05:40:50;15.00;;;7.70;;
21878;SDS011;27908;42.708;23.278;2023-04-24T05:43:15;15.17;;;7.30;;
21878;SDS011;27908;42.708;23.278;2023-04-24T05:45:41;20.23;;;8.43;;
21878;SDS011;27908;42.708;23.278;2023-04-24T05:48:06;16.73;;;7.77;;
21878;SDS011;27908;42.708;23.278;2023-04-24T05:50:31;15.43;;;8.23;;
21878;SDS011;27908;42.708;23.278;2023-04-24T05:52:57;18.77;;;7.20;;
21878;SDS011;27908;42.708;23.278;2023-04-24T05:55:27;15.20;;;7.80;;
21878;SDS011;27908;42.708;23.278;2023-04-24T05:57:53;14.30;;;6.97;;
21878;SDS011;27908;42.708;23.278;2023-04-24T06:00:18;17.27;;;7.43;;
21878;SDS011;27908;42.708;23.278;2023-04-24T06:02:45;16.60;;;7.13;;
21878;SDS011;27908;42.708;23.278;2023-04-24T06:05:11;15.70;;;7.57;;
21878;SDS011;27908;42.708;23.278;2023-04-24T06:07:37;16.52;;;7.97;;
21878;SDS011;27908;42.708;23.278;2023-04-24T06:10:02;12.87;;;7.60;;
21878;SDS011;27908;42.708;23.278;2023-04-24T06:12:28;13.73;;;7.82;;
21878;SDS011;27908;42.708;23.278;2023-04-24T06:14:53;14.03;;;6.80;;
21878;SDS011;27908;42.708;23.278;2023-04-24T06:17:20;18.88;;;7.57;;
21878;SDS011;27908;42.708;23.278;2023-04-24T06:19:46;14.77;;;7.20;;
21878;SDS011;27908;42.708;23.278;2023-04-24T06:22:12;12.77;;;7.10;;
21878;SDS011;27908;42.708;23.278;2023-04-24T06:24:37;16.77;;;7.67;;
21878;SDS011;27908;42.708;23.278;2023-04-24T06:27:02;15.13;;;6.72;;
21878;SDS011;27908;42.708;23.278;2023-04-24T06:29:28;14.37;;;6.93;;
21878;SDS011;27908;42.708;23.278;2023-04-24T06:31:53;14.57;;;6.87;;
21878;SDS011;27908;42.708;23.278;2023-04-24T06:34:19;13.00;;;6.53;;
21878;SDS011;27908;42.708;23.278;2023-04-24T06:36:46;12.00;;;6.73;;
21878;SDS011;27908;42.708;23.278;2023-04-24T06:39:12;11.57;;;6.05;;
21878;SDS011;27908;42.708;23.278;2023-04-24T06:41:37;12.02;;;6.18;;
21878;SDS011;27908;42.708;23.278;2023-04-24T06:44:03;12.53;;;6.67;;
21878;SDS011;27908;42.708;23.278;2023-04-24T06:46:28;16.03;;;7.00;;
21878;SDS011;27908;42.708;23.278;2023-04-24T06:48:54;12.07;;;6.33;;
21878;SDS011;27908;42.708;23.278;2023-04-24T06:51:21;12.97;;;6.97;;
21878;SDS011;27908;42.708;23.278;2023-04-24T06:53:53;15.00;;;6.40;;
21878;SDS011;27908;42.708;23.278;2023-04-24T06:56:19;16.55;;;7.05;;
21878;SDS011;27908;42.708;23.278;2023-04-24T06:58:45;14.60;;;7.27;;
21878;SDS011;27908;42.708;23.278;2023-04-24T07:01:11;14.77;;;7.80;;
21878;SDS011;27908;42.708;23.278;2023-04-24T07:03:36;15.02;;;6.88;;
21878;SDS011;27908;42.708;23.278;2023-04-24T07:06:02;19.57;;;6.80;;
21878;SDS011;27908;42.708;23.278;2023-04-24T07:08:28;12.80;;;7.43;;
21878;SDS011;27908;42.708;23.278;2023-04-24T07:10:55;20.30;;;7.33;;
21878;SDS011;27908;42.708;23.278;2023-04-24T07:13:21;15.43;;;6.85;;
21878;SDS011;27908;42.708;23.278;2023-04-24T07:15:47;14.57;;;7.78;;
21878;SDS011;27908;42.708;23.278;2023-04-24T07:18:15;14.60;;;7.55;;
21878;SDS011;27908;42.708;23.278;2023-04-24T07:20:41;13.93;;;7.30;;
21878;SDS011;27908;42.708;23.278;2023-04-24T07:23:06;17.07;;;6.77;;
21878;SDS011;27908;42.708;23.278;2023-04-24T07:25:32;12.60;;;7.50;;
21878;SDS011;27908;42.708;23.278;2023-04-24T07:27:57;14.93;;;7.10;;
21878;SDS011;27908;42.708;23.278;2023-04-24T07:30:23;13.80;;;7.07;;
21878;SDS011;27908;42.708;23.278;2023-04-24T07:32:48;16.00;;;7.23;;
21878;SDS011;27908;42.708;23.278;2023-04-24T07:35:14;18.20;;;7.10;;
21878;SDS011;27908;42.708;23.278;2023-04-24T07:37:39;12.90;;;6.87;;
21878;SDS011;27908;42.708;23.278;2023-04-24T07:40:05;13.15;;;6.60;;
21878;SDS011;27908;42.708;23.278;2023-04-24T07:42:31;14.75;;;7.10;;
21878;SDS011;27908;42.708;23.278;2023-04-24T07:44:59;14.40;;;7.20;;
21878;SDS011;27908;42.708;23.278;2023-04-24T07:47:24;14.43;;;7.00;;
21878;SDS011;27908;42.708;23.278;2023-04-24T07:49:50;15.13;;;6.50;;
21878;SDS011;27908;42.708;23.278;2023-04-24T07:52:16;12.25;;;5.70;;
21878;SDS011;27908;42.708;23.278;2023-04-24T07:54:41;11.27;;;6.17;;
21878;SDS011;27908;42.708;23.278;2023-04-24T07:57:07;13.40;;;6.35;;
21878;SDS011;27908;42.708;23.278;2023-04-24T07:59:33;12.33;;;6.20;;
21878;SDS011;27908;42.708;23.278;2023-04-24T08:01:59;12.17;;;6.27;;
21878;SDS011;27908;42.708;23.278;2023-04-24T08:04:26;12.60;;;7.00;;
21878;SDS011;27908;42.708;23.278;2023-04-24T08:06:51;15.60;;;6.47;;
21878;SDS011;27908;42.708;23.278;2023-04-24T08:09:17;13.13;;;6.57;;
21878;SDS011;27908;42.708;23.278;2023-04-24T08:11:43;11.23;;;6.00;;
21878;SDS011;27908;42.708;23.278;2023-04-24T08:14:08;16.35;;;7.10;;
21878;SDS011;27908;42.708;23.278;2023-04-24T08:16:34;12.77;;;6.67;;
21878;SDS011;27908;42.708;23.278;2023-04-24T08:19:00;13.85;;;6.43;;
21878;SDS011;27908;42.708;23.278;2023-04-24T08:21:25;13.60;;;6.80;;
21878;SDS011;27908;42.708;23.278;2023-04-24T08:23:52;12.18;;;6.25;;
21878;SDS011;27908;42.708;23.278;2023-04-24T08:26:17;12.27;;;6.30;;
21878;SDS011;27908;42.708;23.278;2023-04-24T08:28:43;13.10;;;6.13;;
21878;SDS011;27908;42.708;23.278;2023-04-24T08:31:08;15.80;;;6.40;;
21878;SDS011;27908;42.708;23.278;2023-04-24T08:33:34;14.07;;;6.15;;
21878;SDS011;27908;42.708;23.278;2023-04-24T08:36:03;11.73;;;6.47;;
21878;SDS011;27908;42.708;23.278;2023-04-24T08:38:29;11.13;;;6.47;;
21878;SDS011;27908;42.708;23.278;2023-04-24T08:40:56;11.83;;;6.43;;
21878;SDS011;27908;42.708;23.278;2023-04-24T08:43:23;12.80;;;6.88;;
21878;SDS011;27908;42.708;23.278;2023-04-24T08:45:51;14.18;;;6.38;;
21878;SDS011;27908;42.708;23.278;2023-04-24T08:48:17;14.07;;;6.47;;
21878;SDS011;27908;42.708;23.278;2023-04-24T08:50:43;13.40;;;7.20;;
21878;SDS011;27908;42.708;23.278;2023-04-24T08:53:09;13.15;;;6.00;;
21878;SDS011;27908;42.708;23.278;2023-04-24T08:55:35;14.37;;;6.00;;
21878;SDS011;27908;42.708;23.278;2023-04-24T08:58:02;10.80;;;6.20;;
21878;SDS011;27908;42.708;23.278;2023-04-24T09:00:28;14.68;;;6.03;;
21878;SDS011;27908;42.708;23.278;2023-04-24T09:02:53;13.18;;;5.75;;
21878;SDS011;27908;42.708;23.278;2023-04-24T09:05:20;13.00;;;5.88;;
21878;SDS011;27908;42.708;23.278;2023-04-24T09:07:57;13.27;;;6.20;;
21878;SDS011;27908;42.708;23.278;2023-04-24T09:10:26;10.63;;;4.47;;
21878;SDS011;27908;42.708;23.278;2023-04-24T09:12:53;10.48;;;6.13;;
21878;SDS011;27908;42.708;23.278;2023-04-24T09:15:20;14.55;;;6.45;;
21878;SDS011;27908;42.708;23.278;2023-04-24T09:17:45;13.33;;;6.00;;
21878;SDS011;27908;42.708;23.278;2023-04-24T09:20:11;11.70;;;6.20;;
21878;SDS011;27908;42.708;23.278;2023-04-24T09:22:37;12.15;;;6.28;;
21878;SDS011;27908;42.708;23.278;2023-04-24T09:25:04;13.10;;;6.07;;
21878;SDS011;27908;42.708;23.278;2023-04-24T09:27:32;14.07;;;6.55;;
21878;SDS011;27908;42.708;23.278;2023-04-24T09:30:01;11.63;;;6.00;;
21878;SDS011;27908;42.708;23.278;2023-04-24T09:32:27;12.75;;;5.82;;
21878;SDS011;27908;42.708;23.278;2023-04-24T09:37:49;13.37;;;5.63;;
21878;SDS011;27908;42.708;23.278;2023-04-24T09:40:19;11.73;;;6.00;;
21878;SDS011;27908;42.708;23.278;2023-04-24T09:42:46;9.30;;;5.60;;
21878;SDS011;27908;42.708;23.278;2023-04-24T09:45:18;12.20;;;5.60;;
21878;SDS011;27908;42.708;23.278;2023-04-24T09:47:43;15.27;;;6.00;;
21878;SDS011;27908;42.708;23.278;2023-04-24T09:50:15;11.73;;;6.20;;
21878;SDS011;27908;42.708;23.278;2023-04-24T09:52:45;13.45;;;6.03;;
21878;SDS011;27908;42.708;23.278;2023-04-24T09:55:13;10.88;;;4.82;;
21878;SDS011;27908;42.708;23.278;2023-04-24T09:57:51;10.25;;;5.47;;
21878;SDS011;27908;42.708;23.278;2023-04-24T10:00:27;10.60;;;5.73;;
21878;SDS011;27908;42.708;23.278;2023-04-24T10:02:57;9.75;;;5.35;;
21878;SDS011;27908;42.708;23.278;2023-04-24T10:05:28;10.45;;;5.18;;
21878;SDS011;27908;42.708;23.278;2023-04-24T10:08:01;12.05;;;4.97;;
21878;SDS011;27908;42.708;23.278;2023-04-24T10:10:31;11.65;;;5.20;;
21878;SDS011;27908;42.708;23.278;2023-04-24T10:12:57;12.57;;;5.00;;
21878;SDS011;27908;42.708;23.278;2023-04-24T10:15:24;9.38;;;4.95;;
21878;SDS011;27908;42.708;23.278;2023-04-24T10:17:51;11.38;;;5.10;;
21878;SDS011;27908;42.708;23.278;2023-04-24T10:20:21;9.55;;;5.13;;
21878;SDS011;27908;42.708;23.278;2023-04-24T10:22:48;11.10;;;5.00;;
21878;SDS011;27908;42.708;23.278;2023-04-24T10:25:16;11.20;;;5.30;;
21878;SDS011;27908;42.708;23.278;2023-04-24T10:27:43;11.35;;;5.10;;
21878;SDS011;27908;42.708;23.278;2023-04-24T10:30:11;10.75;;;5.10;;
21878;SDS011;27908;42.708;23.278;2023-04-24T10:32:38;9.75;;;4.80;;
21878;SDS011;27908;42.708;23.278;2023-04-24T10:35:03;9.93;;;4.53;;
21878;SDS011;27908;42.708;23.278;2023-04-24T10:37:34;11.43;;;4.65;;
21878;SDS011;27908;42.708;23.278;2023-04-24T10:40:03;11.05;;;4.80;;
21878;SDS011;27908;42.708;23.278;2023-04-24T10:42:29;13.03;;;5.03;;
21878;SDS011;27908;42.708;23.278;2023-04-24T10:44:54;10.88;;;5.10;;
21878;SDS011;27908;42.708;23.278;2023-04-24T10:47:21;11.60;;;5.00;;
21878;SDS011;27908;42.708;23.278;2023-04-24T10:49:46;10.40;;;4.70;;
21878;SDS011;27908;42.708;23.278;2023-04-24T10:52:16;9.27;;;4.55;;
21878;SDS011;27908;42.708;23.278;2023-04-24T10:54:45;11.93;;;5.30;;
21878;SDS011;27908;42.708;23.278;2023-04-24T10:59:43;9.27;;;4.18;;
21878;SDS011;27908;42.708;23.278;2023-04-24T11:02:09;12.03;;;4.80;;
21878;SDS011;27908;42.708;23.278;2023-04-24T11:04:35;10.77;;;4.40;;
21878;SDS011;27908;42.708;23.278;2023-04-24T11:07:02;11.88;;;4.90;;
21878;SDS011;27908;42.708;23.278;2023-04-24T11:09:28;8.57;;;4.53;;
21878;SDS011;27908;42.708;23.278;2023-04-24T11:12:02;9.40;;;4.30;;
21878;SDS011;27908;42.708;23.278;2023-04-24T11:17:34;11.02;;;5.10;;
21878;SDS011;27908;42.708;23.278;2023-04-24T11:20:06;10.48;;;4.30;;
21878;SDS011;27908;42.708;23.278;2023-04-24T11:22:35;10.60;;;5.10;;
21878;SDS011;27908;42.708;23.278;2023-04-24T11:25:02;10.10;;;5.13;;
21878;SDS011;27908;42.708;23.278;2023-04-24T11:27:32;9.68;;;5.72;;
21878;SDS011;27908;42.708;23.278;2023-04-24T11:30:08;9.77;;;5.13;;
21878;SDS011;27908;42.708;23.278;2023-04-24T11:32:36;11.38;;;5.50;;
21878;SDS011;27908;42.708;23.278;2023-04-24T11:35:06;14.23;;;7.55;;
21878;SDS011;27908;42.708;23.278;2023-04-24T11:37:34;12.13;;;6.63;;
21878;SDS011;27908;42.708;23.278;2023-04-24T11:40:02;11.80;;;6.15;;
21878;SDS011;27908;42.708;23.278;2023-04-24T11:42:39;12.85;;;6.50;;
21878;SDS011;27908;42.708;23.278;2023-04-24T11:45:13;9.82;;;5.45;;
21878;SDS011;27908;42.708;23.278;2023-04-24T11:47:40;9.82;;;5.70;;
21878;SDS011;27908;42.708;23.278;2023-04-24T11:50:08;10.80;;;4.93;;
21878;SDS011;27908;42.708;23.278;2023-04-24T11:52:38;8.93;;;5.35;;
21878;SDS011;27908;42.708;23.278;2023-04-24T11:55:24;9.88;;;5.00;;
21878;SDS011;27908;42.708;23.278;2023-04-24T11:57:55;8.52;;;4.55;;
21878;SDS011;27908;42.708;23.278;2023-04-24T12:00:23;8.57;;;4.53;;
21878;SDS011;27908;42.708;23.278;2023-04-24T12:02:50;8.70;;;4.23;;
21878;SDS011;27908;42.708;23.278;2023-04-24T12:05:26;8.05;;;4.35;;
21878;SDS011;27908;42.708;23.278;2023-04-24T12:07:52;8.48;;;4.22;;
21878;SDS011;27908;42.708;23.278;2023-04-24T12:10:21;7.60;;;4.03;;
21878;SDS011;27908;42.708;23.278;2023-04-24T12:12:52;8.85;;;4.55;;
21878;SDS011;27908;42.708;23.278;2023-04-24T12:15:19;10.93;;;4.50;;
21878;SDS011;27908;42.708;23.278;2023-04-24T12:17:45;8.93;;;4.22;;
21878;SDS011;27908;42.708;23.278;2023-04-24T12:20:11;8.45;;;4.38;;
21878;SDS011;27908;42.708;23.278;2023-04-24T12:22:45;8.73;;;4.32;;
21878;SDS011;27908;42.708;23.278;2023-04-24T12:25:11;7.83;;;4.20;;
21878;SDS011;27908;42.708;23.278;2023-04-24T12:27:36;12.00;;;4.40;;
21878;SDS011;27908;42.708;23.278;2023-04-24T12:30:03;9.57;;;5.77;;
21878;SDS011;27908;42.708;23.278;2023-04-24T12:32:30;12.10;;;6.72;;
21878;SDS011;27908;42.708;23.278;2023-04-24T12:34:55;9.15;;;4.70;;
21878;SDS011;27908;42.708;23.278;2023-04-24T12:37:24;8.27;;;4.63;;
21878;SDS011;27908;42.708;23.278;2023-04-24T12:40:07;9.77;;;4.57;;
21878;SDS011;27908;42.708;23.278;2023-04-24T12:42:34;9.15;;;4.00;;
21878;SDS011;27908;42.708;23.278;2023-04-24T12:45:02;13.00;;;5.43;;
21878;SDS011;27908;42.708;23.278;2023-04-24T12:47:29;10.10;;;4.23;;
21878;SDS011;27908;42.708;23.278;2023-04-24T12:49:55;10.30;;;4.13;;
21878;SDS011;27908;42.708;23.278;2023-04-24T12:52:24;7.27;;;4.03;;
21878;SDS011;27908;42.708;23.278;2023-04-24T12:54:50;8.27;;;3.63;;
21878;SDS011;27908;42.708;23.278;2023-04-24T12:57:17;10.02;;;4.20;;
21878;SDS011;27908;42.708;23.278;2023-04-24T12:59:43;11.25;;;4.32;;
21878;SDS011;27908;42.708;23.278;2023-04-24T13:02:09;8.40;;;3.93;;
21878;SDS011;27908;42.708;23.278;2023-04-24T13:04:35;10.52;;;4.50;;
21878;SDS011;27908;42.708;23.278;2023-04-24T13:07:00;7.57;;;3.80;;
21878;SDS011;27908;42.708;23.278;2023-04-24T13:09:26;9.00;;;3.80;;
21878;SDS011;27908;42.708;23.278;2023-04-24T13:11:51;7.77;;;3.90;;
21878;SDS011;27908;42.708;23.278;2023-04-24T13:14:17;10.03;;;4.20;;
21878;SDS011;27908;42.708;23.278;2023-04-24T13:16:42;7.97;;;3.67;;
21878;SDS011;27908;42.708;23.278;2023-04-24T13:19:07;8.90;;;3.80;;
21878;SDS011;27908;42.708;23.278;2023-04-24T13:21:33;8.73;;;3.57;;
21878;SDS011;27908;42.708;23.278;2023-04-24T13:23:58;9.80;;;3.70;;
21878;SDS011;27908;42.708;23.278;2023-04-24T13:26:24;7.85;;;3.50;;
21878;SDS011;27908;42.708;23.278;2023-04-24T13:28:50;8.00;;;3.00;;
21878;SDS011;27908;42.708;23.278;2023-04-24T13:31:15;8.10;;;3.72;;
21878;SDS011;27908;42.708;23.278;2023-04-24T13:33:41;9.10;;;3.30;;
21878;SDS011;27908;42.708;23.278;2023-04-24T13:36:07;10.82;;;5.32;;
21878;SDS011;27908;42.708;23.278;2023-04-24T13:38:33;6.70;;;3.20;;
21878;SDS011;27908;42.708;23.278;2023-04-24T13:40:59;8.30;;;3.07;;
21878;SDS011;27908;42.708;23.278;2023-04-24T13:43:24;9.38;;;3.30;;
21878;SDS011;27908;42.708;23.278;2023-04-24T13:45:50;7.50;;;3.40;;
21878;SDS011;27908;42.708;23.278;2023-04-24T13:48:15;8.83;;;3.07;;
21878;SDS011;27908;42.708;23.278;2023-04-24T13:50:41;8.98;;;3.55;;
21878;SDS011;27908;42.708;23.278;2023-04-24T13:53:07;7.27;;;3.13;;
21878;SDS011;27908;42.708;23.278;2023-04-24T13:55:33;7.10;;;2.80;;
21878;SDS011;27908;42.708;23.278;2023-04-24T13:57:59;8.20;;;3.47;;
21878;SDS011;27908;42.708;23.278;2023-04-24T14:00:24;8.35;;;2.95;;
21878;SDS011;27908;42.708;23.278;2023-04-24T14:02:50;7.63;;;3.10;;
21878;SDS011;27908;42.708;23.278;2023-04-24T14:05:16;8.17;;;3.20;;
21878;SDS011;27908;42.708;23.278;2023-04-24T14:07:41;8.67;;;3.20;;
21878;SDS011;27908;42.708;23.278;2023-04-24T14:10:07;7.47;;;3.10;;
21878;SDS011;27908;42.708;23.278;2023-04-24T14:12:33;7.17;;;2.90;;
21878;SDS011;27908;42.708;23.278;2023-04-24T14:14:59;8.45;;;3.00;;
21878;SDS011;27908;42.708;23.278;2023-04-24T14:17:24;10.00;;;3.13;;
21878;SDS011;27908;42.708;23.278;2023-04-24T14:19:49;8.32;;;2.80;;
21878;SDS011;27908;42.708;23.278;2023-04-24T14:22:17;7.50;;;3.05;;
21878;SDS011;27908;42.708;23.278;2023-04-24T14:24:42;8.00;;;3.10;;
21878;SDS011;27908;42.708;23.278;2023-04-24T14:27:08;10.27;;;3.53;;